Main page
METAR-TAF:

METAR-TAF

Airports :

Antonio Roldán Betancourt Airport

Apartadó, Colombia

latitude: 07-49N, longitude: 076-42W, elevation: 20 m

Current weather observation

The report was made 1 hour and 24 minutes ago, at 15:00 UTC
Calm wind
Temperature 26°C
Humidity 89%
Pressure 1014 hPa
Visibility 10 km or more
Scattered clouds at a height of 1700 ft

METAR: SKLC 281500Z 00000KT 9999 SCT017 26/24 A2993

Time: 11:24 (16:24 UTC)


TAF: missing

Weather observations and forecasts of more than 4000 airports (METAR and TAF reports).

The available stations are represented by yellow and red dots on the map.

Hover mouse over dot to see the name of the station.

Then click to see weather observations and forecasts.

To change the map : click on the green buttons with a black cross to zoom in, on the green button with a dash to zoom out, or on the green arrows for adjacent maps.


METAR-TAF: